sensor_id;sensor_type;location;lat;lon;timestamp;pressure;altitude;pressure_sealevel;temperature;humidity
42007;BME280;27696;42.704;23.304;2022-10-16T00:01:19;95905.19;;;18.74;42.41
42007;BME280;27696;42.704;23.304;2022-10-16T00:03:45;95904.81;;;18.94;41.97
42007;BME280;27696;42.704;23.304;2022-10-16T00:06:15;95905.28;;;19.11;41.69
42007;BME280;27696;42.704;23.304;2022-10-16T00:08:41;95906.81;;;19.22;41.70
42007;BME280;27696;42.704;23.304;2022-10-16T00:11:11;95911.31;;;19.06;41.87
42007;BME280;27696;42.704;23.304;2022-10-16T00:13:40;95912.75;;;18.79;42.35
42007;BME280;27696;42.704;23.304;2022-10-16T00:16:09;95918.84;;;18.93;42.07
42007;BME280;27696;42.704;23.304;2022-10-16T00:18:36;95914.06;;;19.15;41.81
42007;BME280;27696;42.704;23.304;2022-10-16T00:21:06;95920.88;;;18.61;42.50
42007;BME280;27696;42.704;23.304;2022-10-16T00:23:32;95918.00;;;19.05;41.65
42007;BME280;27696;42.704;23.304;2022-10-16T00:25:59;95916.53;;;18.72;42.11
42007;BME280;27696;42.704;23.304;2022-10-16T00:28:25;95929.13;;;18.88;42.14
42007;BME280;27696;42.704;23.304;2022-10-16T00:30:54;95925.63;;;18.79;42.31
42007;BME280;27696;42.704;23.304;2022-10-16T00:33:21;95936.06;;;18.80;41.98
42007;BME280;27696;42.704;23.304;2022-10-16T00:35:57;95936.63;;;18.75;42.12
42007;BME280;27696;42.704;23.304;2022-10-16T00:38:24;95934.53;;;18.38;42.69
42007;BME280;27696;42.704;23.304;2022-10-16T00:40:49;95931.31;;;18.31;43.09
42007;BME280;27696;42.704;23.304;2022-10-16T00:43:35;95929.63;;;18.55;42.42
42007;BME280;27696;42.704;23.304;2022-10-16T00:46:01;95924.75;;;18.41;42.87
42007;BME280;27696;42.704;23.304;2022-10-16T00:48:27;95926.88;;;18.15;43.29
42007;BME280;27696;42.704;23.304;2022-10-16T00:50:53;95923.88;;;18.53;42.48
42007;BME280;27696;42.704;23.304;2022-10-16T00:53:22;95925.19;;;18.08;43.32
42007;BME280;27696;42.704;23.304;2022-10-16T00:55:48;95923.13;;;18.21;43.02
42007;BME280;27696;42.704;23.304;2022-10-16T00:58:15;95923.25;;;18.49;42.35
42007;BME280;27696;42.704;23.304;2022-10-16T01:00:46;95917.84;;;18.59;42.17
42007;BME280;27696;42.704;23.304;2022-10-16T01:05:59;95928.78;;;18.36;42.53
42007;BME280;27696;42.704;23.304;2022-10-16T01:08:41;95933.81;;;18.16;42.87
42007;BME280;27696;42.704;23.304;2022-10-16T01:11:13;95934.84;;;18.09;42.97
42007;BME280;27696;42.704;23.304;2022-10-16T01:13:42;95933.34;;;18.08;43.02
42007;BME280;27696;42.704;23.304;2022-10-16T01:16:15;95930.75;;;18.36;42.52
42007;BME280;27696;42.704;23.304;2022-10-16T01:18:54;95926.34;;;18.29;42.65
42007;BME280;27696;42.704;23.304;2022-10-16T01:21:22;95926.16;;;18.23;42.65
42007;BME280;27696;42.704;23.304;2022-10-16T01:24:01;95926.69;;;18.09;42.99
42007;BME280;27696;42.704;23.304;2022-10-16T01:29:30;95918.38;;;18.35;42.13
42007;BME280;27696;42.704;23.304;2022-10-16T01:31:59;95925.50;;;18.10;42.74
42007;BME280;27696;42.704;23.304;2022-10-16T01:34:28;95925.88;;;18.31;42.30
42007;BME280;27696;42.704;23.304;2022-10-16T01:37:02;95934.00;;;18.21;42.40
42007;BME280;27696;42.704;23.304;2022-10-16T01:39:31;95925.94;;;18.08;42.80
42007;BME280;27696;42.704;23.304;2022-10-16T01:42:05;95926.69;;;18.09;42.74
42007;BME280;27696;42.704;23.304;2022-10-16T01:44:32;95922.53;;;18.17;42.55
42007;BME280;27696;42.704;23.304;2022-10-16T01:46:59;95935.03;;;17.92;42.99
42007;BME280;27696;42.704;23.304;2022-10-16T01:49:25;95937.06;;;17.79;43.18
42007;BME280;27696;42.704;23.304;2022-10-16T01:51:56;95936.69;;;17.90;42.96
42007;BME280;27696;42.704;23.304;2022-10-16T01:54:25;95938.91;;;17.82;43.14
42007;BME280;27696;42.704;23.304;2022-10-16T01:56:51;95937.69;;;17.83;43.25
42007;BME280;27696;42.704;23.304;2022-10-16T01:59:18;95932.59;;;17.85;43.10
42007;BME280;27696;42.704;23.304;2022-10-16T02:01:45;95897.38;;;17.59;43.12
42007;BME280;27696;42.704;23.304;2022-10-16T02:04:14;95938.25;;;17.78;43.37
42007;BME280;27696;42.704;23.304;2022-10-16T02:06:56;95948.00;;;17.66;43.67
42007;BME280;27696;42.704;23.304;2022-10-16T02:09:22;95949.06;;;17.46;43.85
42007;BME280;27696;42.704;23.304;2022-10-16T02:11:48;95953.94;;;17.74;43.39
42007;BME280;27696;42.704;23.304;2022-10-16T02:14:14;95959.59;;;17.67;43.73
42007;BME280;27696;42.704;23.304;2022-10-16T02:16:42;95955.00;;;17.76;43.41
42007;BME280;27696;42.704;23.304;2022-10-16T02:19:09;95956.81;;;17.35;44.23
42007;BME280;27696;42.704;23.304;2022-10-16T02:21:53;95954.00;;;17.83;43.27
42007;BME280;27696;42.704;23.304;2022-10-16T02:24:32;95960.63;;;17.82;43.15
42007;BME280;27696;42.704;23.304;2022-10-16T02:27:06;95967.72;;;18.02;42.93
42007;BME280;27696;42.704;23.304;2022-10-16T02:29:38;95966.53;;;17.81;43.26
42007;BME280;27696;42.704;23.304;2022-10-16T02:32:04;95970.25;;;17.39;43.97
42007;BME280;27696;42.704;23.304;2022-10-16T02:34:31;95968.84;;;17.69;43.49
42007;BME280;27696;42.704;23.304;2022-10-16T02:36:58;95969.88;;;17.49;43.70
42007;BME280;27696;42.704;23.304;2022-10-16T02:39:27;95967.81;;;17.54;43.51
42007;BME280;27696;42.704;23.304;2022-10-16T02:41:54;95970.19;;;17.87;43.06
42007;BME280;27696;42.704;23.304;2022-10-16T02:44:19;95967.88;;;17.41;44.14
42007;BME280;27696;42.704;23.304;2022-10-16T02:46:45;95976.34;;;17.43;43.68
42007;BME280;27696;42.704;23.304;2022-10-16T02:49:10;95969.59;;;17.35;43.77
42007;BME280;27696;42.704;23.304;2022-10-16T02:51:36;95985.44;;;17.49;43.45
42007;BME280;27696;42.704;23.304;2022-10-16T02:54:02;95985.94;;;17.22;44.12
42007;BME280;27696;42.704;23.304;2022-10-16T02:56:28;95988.06;;;17.40;43.63
42007;BME280;27696;42.704;23.304;2022-10-16T02:58:55;95987.06;;;17.46;43.37
42007;BME280;27696;42.704;23.304;2022-10-16T03:01:20;95995.44;;;17.39;43.64
42007;BME280;27696;42.704;23.304;2022-10-16T03:03:46;95992.91;;;17.10;44.33
42007;BME280;27696;42.704;23.304;2022-10-16T03:06:14;95988.34;;;17.07;43.93
42007;BME280;27696;42.704;23.304;2022-10-16T03:08:41;95986.28;;;17.59;43.02
42007;BME280;27696;42.704;23.304;2022-10-16T03:11:06;95991.44;;;17.31;43.16
42007;BME280;27696;42.704;23.304;2022-10-16T03:13:32;95992.44;;;17.24;43.21
42007;BME280;27696;42.704;23.304;2022-10-16T03:15:58;95993.41;;;17.17;43.22
42007;BME280;27696;42.704;23.304;2022-10-16T03:18:25;95994.88;;;16.96;43.82
42007;BME280;27696;42.704;23.304;2022-10-16T03:20:50;95990.50;;;17.12;43.47
42007;BME280;27696;42.704;23.304;2022-10-16T03:23:16;95996.72;;;16.99;43.91
42007;BME280;27696;42.704;23.304;2022-10-16T03:25:41;95997.03;;;16.76;44.06
42007;BME280;27696;42.704;23.304;2022-10-16T03:28:07;96003.09;;;16.80;44.23
42007;BME280;27696;42.704;23.304;2022-10-16T03:30:42;96003.03;;;16.96;43.74
42007;BME280;27696;42.704;23.304;2022-10-16T03:33:07;96005.81;;;16.93;43.93
42007;BME280;27696;42.704;23.304;2022-10-16T03:35:33;96003.34;;;16.98;43.70
42007;BME280;27696;42.704;23.304;2022-10-16T03:38:02;96007.34;;;17.07;43.53
42007;BME280;27696;42.704;23.304;2022-10-16T03:40:36;95993.53;;;17.27;43.10
42007;BME280;27696;42.704;23.304;2022-10-16T03:43:05;96007.34;;;16.55;44.43
42007;BME280;27696;42.704;23.304;2022-10-16T03:45:31;95998.63;;;17.25;43.06
42007;BME280;27696;42.704;23.304;2022-10-16T03:47:57;95993.09;;;17.28;43.10
42007;BME280;27696;42.704;23.304;2022-10-16T03:50:22;95995.63;;;16.84;43.81
42007;BME280;27696;42.704;23.304;2022-10-16T03:52:51;95994.66;;;16.78;43.91
42007;BME280;27696;42.704;23.304;2022-10-16T03:55:16;95994.53;;;16.68;44.04
42007;BME280;27696;42.704;23.304;2022-10-16T03:57:42;95994.75;;;16.61;44.31
42007;BME280;27696;42.704;23.304;2022-10-16T04:00:08;95991.06;;;17.07;43.44
42007;BME280;27696;42.704;23.304;2022-10-16T04:02:34;95992.03;;;17.26;42.81
42007;BME280;27696;42.704;23.304;2022-10-16T04:05:00;95993.78;;;17.07;42.81
42007;BME280;27696;42.704;23.304;2022-10-16T04:07:26;95995.06;;;17.15;42.80
42007;BME280;27696;42.704;23.304;2022-10-16T04:09:52;95997.69;;;17.06;43.24
42007;BME280;27696;42.704;23.304;2022-10-16T04:12:18;96001.25;;;16.90;43.20
42007;BME280;27696;42.704;23.304;2022-10-16T04:14:43;96002.00;;;16.90;43.12
42007;BME280;27696;42.704;23.304;2022-10-16T04:17:09;96003.41;;;16.43;44.38
42007;BME280;27696;42.704;23.304;2022-10-16T04:19:38;95996.50;;;16.55;43.92
42007;BME280;27696;42.704;23.304;2022-10-16T04:22:06;95995.41;;;16.78;43.26
42007;BME280;27696;42.704;23.304;2022-10-16T04:24:33;96003.53;;;16.65;43.38
42007;BME280;27696;42.704;23.304;2022-10-16T04:26:59;96001.16;;;16.67;43.51
42007;BME280;27696;42.704;23.304;2022-10-16T04:29:26;96010.25;;;16.74;43.42
42007;BME280;27696;42.704;23.304;2022-10-16T04:31:52;96009.81;;;16.62;43.92
42007;BME280;27696;42.704;23.304;2022-10-16T04:34:18;96009.19;;;16.84;43.27
42007;BME280;27696;42.704;23.304;2022-10-16T04:36:44;96012.00;;;16.93;43.04
42007;BME280;27696;42.704;23.304;2022-10-16T04:39:11;96013.63;;;16.78;43.48
42007;BME280;27696;42.704;23.304;2022-10-16T04:41:40;96011.44;;;16.47;44.16
42007;BME280;27696;42.704;23.304;2022-10-16T04:44:07;96019.81;;;16.91;43.43
42007;BME280;27696;42.704;23.304;2022-10-16T04:46:32;96021.84;;;16.48;44.25
42007;BME280;27696;42.704;23.304;2022-10-16T04:49:01;96019.59;;;16.73;43.65
42007;BME280;27696;42.704;23.304;2022-10-16T04:51:26;96025.38;;;17.00;43.13
42007;BME280;27696;42.704;23.304;2022-10-16T04:53:53;96034.78;;;16.57;43.93
42007;BME280;27696;42.704;23.304;2022-10-16T04:56:22;96025.56;;;16.93;43.62
42007;BME280;27696;42.704;23.304;2022-10-16T04:58:49;96037.06;;;16.71;43.75
42007;BME280;27696;42.704;23.304;2022-10-16T05:01:15;96044.34;;;16.75;43.86
42007;BME280;27696;42.704;23.304;2022-10-16T05:03:42;96050.63;;;16.59;44.08
42007;BME280;27696;42.704;23.304;2022-10-16T05:06:11;96051.41;;;16.72;43.88
42007;BME280;27696;42.704;23.304;2022-10-16T05:08:36;96041.97;;;16.77;43.93
42007;BME280;27696;42.704;23.304;2022-10-16T05:11:03;96045.41;;;16.64;44.12
42007;BME280;27696;42.704;23.304;2022-10-16T05:13:30;96044.19;;;16.39;44.46
42007;BME280;27696;42.704;23.304;2022-10-16T05:15:57;96043.47;;;16.78;43.90
42007;BME280;27696;42.704;23.304;2022-10-16T05:18:23;96042.28;;;16.79;43.97
42007;BME280;27696;42.704;23.304;2022-10-16T05:20:51;96046.38;;;16.70;43.87
42007;BME280;27696;42.704;23.304;2022-10-16T05:23:17;96052.31;;;16.39;44.62
42007;BME280;27696;42.704;23.304;2022-10-16T05:28:35;96054.56;;;16.96;43.64
42007;BME280;27696;42.704;23.304;2022-10-16T05:31:08;96061.16;;;17.47;42.49
42007;BME280;27696;42.704;23.304;2022-10-16T05:33:35;96060.28;;;17.50;42.20
42007;BME280;27696;42.704;23.304;2022-10-16T05:36:05;96060.22;;;17.15;43.00
42007;BME280;27696;42.704;23.304;2022-10-16T05:38:34;96061.72;;;17.42;42.57
42007;BME280;27696;42.704;23.304;2022-10-16T05:41:01;96060.31;;;17.37;42.88
42007;BME280;27696;42.704;23.304;2022-10-16T05:43:30;96053.47;;;17.32;42.74
42007;BME280;27696;42.704;23.304;2022-10-16T05:48:43;96062.53;;;17.64;42.35
42007;BME280;27696;42.704;23.304;2022-10-16T05:51:16;96073.00;;;17.53;42.47
42007;BME280;27696;42.704;23.304;2022-10-16T05:53:45;96070.56;;;17.55;42.32
42007;BME280;27696;42.704;23.304;2022-10-16T05:56:17;96079.81;;;17.58;42.57
42007;BME280;27696;42.704;23.304;2022-10-16T05:58:45;96080.41;;;17.40;42.84
42007;BME280;27696;42.704;23.304;2022-10-16T06:01:17;96078.69;;;17.20;42.99
42007;BME280;27696;42.704;23.304;2022-10-16T06:03:45;96094.50;;;17.35;43.12
42007;BME280;27696;42.704;23.304;2022-10-16T06:06:21;96087.81;;;17.74;42.10
42007;BME280;27696;42.704;23.304;2022-10-16T06:08:50;96093.91;;;17.66;42.28
42007;BME280;27696;42.704;23.304;2022-10-16T06:11:18;96095.78;;;17.56;42.49
42007;BME280;27696;42.704;23.304;2022-10-16T06:13:51;96084.94;;;18.26;41.16
42007;BME280;27696;42.704;23.304;2022-10-16T06:16:18;96102.84;;;18.14;41.62
42007;BME280;27696;42.704;23.304;2022-10-16T06:18:47;96097.66;;;18.07;41.61
42007;BME280;27696;42.704;23.304;2022-10-16T06:21:23;96102.59;;;17.73;42.19
42007;BME280;27696;42.704;23.304;2022-10-16T06:23:53;96107.00;;;18.06;42.02
42007;BME280;27696;42.704;23.304;2022-10-16T06:26:23;96107.06;;;18.15;41.52
42007;BME280;27696;42.704;23.304;2022-10-16T06:28:49;96113.22;;;18.29;41.43
42007;BME280;27696;42.704;23.304;2022-10-16T06:31:16;96109.19;;;18.33;41.60
42007;BME280;27696;42.704;23.304;2022-10-16T06:33:45;96106.31;;;18.59;40.92
42007;BME280;27696;42.704;23.304;2022-10-16T06:36:17;96107.41;;;18.62;40.79
42007;BME280;27696;42.704;23.304;2022-10-16T06:38:46;96067.16;;;18.56;40.12
42007;BME280;27696;42.704;23.304;2022-10-16T06:41:19;96117.88;;;18.28;41.58
42007;BME280;27696;42.704;23.304;2022-10-16T06:43:48;96117.75;;;18.76;40.62
42007;BME280;27696;42.704;23.304;2022-10-16T06:46:18;96120.63;;;18.50;41.06
42007;BME280;27696;42.704;23.304;2022-10-16T06:48:47;96127.88;;;18.98;40.44
42007;BME280;27696;42.704;23.304;2022-10-16T06:51:14;96135.66;;;18.86;40.06
42007;BME280;27696;42.704;23.304;2022-10-16T06:53:43;96135.34;;;19.07;39.88
42007;BME280;27696;42.704;23.304;2022-10-16T06:56:11;96139.78;;;18.69;40.39
42007;BME280;27696;42.704;23.304;2022-10-16T06:58:41;96142.72;;;19.06;40.18
42007;BME280;27696;42.704;23.304;2022-10-16T07:01:10;96141.50;;;18.98;40.23
42007;BME280;27696;42.704;23.304;2022-10-16T07:03:38;96136.63;;;18.48;40.95
42007;BME280;27696;42.704;23.304;2022-10-16T07:06:08;96135.06;;;19.14;39.70
42007;BME280;27696;42.704;23.304;2022-10-16T07:08:37;96090.19;;;18.65;40.32
42007;BME280;27696;42.704;23.304;2022-10-16T07:11:06;96144.94;;;19.21;40.07
42007;BME280;27696;42.704;23.304;2022-10-16T07:13:38;96144.06;;;19.33;39.70
42007;BME280;27696;42.704;23.304;2022-10-16T07:16:05;96145.41;;;18.97;40.37
42007;BME280;27696;42.704;23.304;2022-10-16T07:18:34;96150.69;;;19.23;40.04
42007;BME280;27696;42.704;23.304;2022-10-16T07:21:03;96143.59;;;19.75;39.29
42007;BME280;27696;42.704;23.304;2022-10-16T07:23:30;96141.75;;;19.72;39.47
42007;BME280;27696;42.704;23.304;2022-10-16T07:25:58;96147.69;;;19.71;39.33
42007;BME280;27696;42.704;23.304;2022-10-16T07:28:27;96146.31;;;19.75;39.41
42007;BME280;27696;42.704;23.304;2022-10-16T07:30:55;96147.16;;;20.41;38.25
42007;BME280;27696;42.704;23.304;2022-10-16T07:33:23;96147.94;;;20.41;37.80
42007;BME280;27696;42.704;23.304;2022-10-16T07:35:52;96150.03;;;19.91;38.90
42007;BME280;27696;42.704;23.304;2022-10-16T07:38:21;96153.09;;;20.12;38.57
42007;BME280;27696;42.704;23.304;2022-10-16T07:40:55;96148.22;;;20.16;38.54
42007;BME280;27696;42.704;23.304;2022-10-16T07:43:23;96151.25;;;20.36;38.20
42007;BME280;27696;42.704;23.304;2022-10-16T07:45:50;96152.00;;;20.09;38.78
42007;BME280;27696;42.704;23.304;2022-10-16T07:48:19;96143.69;;;20.31;38.69
42007;BME280;27696;42.704;23.304;2022-10-16T07:50:48;96143.34;;;20.94;37.52
42007;BME280;27696;42.704;23.304;2022-10-16T07:53:17;96148.19;;;20.71;37.66
42007;BME280;27696;42.704;23.304;2022-10-16T07:55:44;96149.56;;;20.67;37.77
42007;BME280;27696;42.704;23.304;2022-10-16T07:58:12;96148.69;;;21.31;36.62
42007;BME280;27696;42.704;23.304;2022-10-16T08:00:44;96156.31;;;21.18;36.81
42007;BME280;27696;42.704;23.304;2022-10-16T08:03:12;96162.00;;;21.39;36.80
42007;BME280;27696;42.704;23.304;2022-10-16T08:05:46;96153.22;;;21.34;36.61
42007;BME280;27696;42.704;23.304;2022-10-16T08:08:18;96156.69;;;21.44;36.50
42007;BME280;27696;42.704;23.304;2022-10-16T08:10:45;96151.81;;;21.06;37.21
42007;BME280;27696;42.704;23.304;2022-10-16T08:13:19;96157.03;;;20.29;38.55
42007;BME280;27696;42.704;23.304;2022-10-16T08:15:47;96150.81;;;22.19;35.39
42007;BME280;27696;42.704;23.304;2022-10-16T08:18:17;96147.91;;;22.37;35.13
42007;BME280;27696;42.704;23.304;2022-10-16T08:20:45;96151.38;;;22.62;34.81
42007;BME280;27696;42.704;23.304;2022-10-16T08:23:12;96144.47;;;22.52;34.62
42007;BME280;27696;42.704;23.304;2022-10-16T08:25:47;96144.88;;;23.04;33.97
42007;BME280;27696;42.704;23.304;2022-10-16T08:28:18;96142.16;;;23.19;33.75
42007;BME280;27696;42.704;23.304;2022-10-16T08:30:45;96138.69;;;23.55;33.52
42007;BME280;27696;42.704;23.304;2022-10-16T08:33:16;96135.94;;;23.55;33.29
42007;BME280;27696;42.704;23.304;2022-10-16T08:35:59;96138.31;;;23.83;33.01
42007;BME280;27696;42.704;23.304;2022-10-16T08:38:27;96132.72;;;23.56;33.70
42007;BME280;27696;42.704;23.304;2022-10-16T08:40:57;96137.16;;;23.89;32.75
42007;BME280;27696;42.704;23.304;2022-10-16T08:43:31;96133.06;;;24.00;32.62
42007;BME280;27696;42.704;23.304;2022-10-16T08:46:49;96140.69;;;23.39;33.39
42007;BME280;27696;42.704;23.304;2022-10-16T08:48:59;96131.50;;;23.78;33.17
42007;BME280;27696;42.704;23.304;2022-10-16T08:51:28;96143.63;;;23.71;33.20
42007;BME280;27696;42.704;23.304;2022-10-16T08:56:57;96143.75;;;23.98;32.51
42007;BME280;27696;42.704;23.304;2022-10-16T08:59:28;96147.25;;;24.39;32.19
42007;BME280;27696;42.704;23.304;2022-10-16T09:01:56;96146.00;;;24.40;32.19
42007;BME280;27696;42.704;23.304;2022-10-16T09:12:39;96143.25;;;25.19;30.32
42007;BME280;27696;42.704;23.304;2022-10-16T09:15:24;96139.75;;;25.19;30.10
42007;BME280;27696;42.704;23.304;2022-10-16T09:20:58;96134.72;;;25.49;29.87
42007;BME280;27696;42.704;23.304;2022-10-16T09:23:30;96134.06;;;25.28;29.25
42007;BME280;27696;42.704;23.304;2022-10-16T09:26:01;96136.56;;;24.94;29.67
42007;BME280;27696;42.704;23.304;2022-10-16T09:28:31;96135.09;;;23.84;31.20
42007;BME280;27696;42.704;23.304;2022-10-16T09:30:57;96132.22;;;24.61;30.06
42007;BME280;27696;42.704;23.304;2022-10-16T09:33:28;96141.88;;;25.03;29.82
42007;BME280;27696;42.704;23.304;2022-10-16T09:35:56;96137.28;;;25.53;29.12
42007;BME280;27696;42.704;23.304;2022-10-16T09:43:56;96147.47;;;25.47;28.94
42007;BME280;27696;42.704;23.304;2022-10-16T09:46:38;96128.66;;;25.40;29.35
42007;BME280;27696;42.704;23.304;2022-10-16T09:49:24;96126.59;;;25.67;29.03
42007;BME280;27696;42.704;23.304;2022-10-16T09:52:13;96128.13;;;25.73;28.43
42007;BME280;27696;42.704;23.304;2022-10-16T09:54:58;96115.13;;;25.74;28.54
42007;BME280;27696;42.704;23.304;2022-10-16T09:57:27;96109.22;;;25.98;28.03
42007;BME280;27696;42.704;23.304;2022-10-16T09:59:55;96114.31;;;26.17;28.21
42007;BME280;27696;42.704;23.304;2022-10-16T10:05:05;96116.19;;;26.54;28.01
42007;BME280;27696;42.704;23.304;2022-10-16T10:07:35;96111.66;;;26.45;28.06
42007;BME280;27696;42.704;23.304;2022-10-16T10:10:05;96109.47;;;26.95;27.60
42007;BME280;27696;42.704;23.304;2022-10-16T10:12:34;96110.44;;;26.69;27.76
42007;BME280;27696;42.704;23.304;2022-10-16T10:15:10;96108.97;;;27.02;27.26
42007;BME280;27696;42.704;23.304;2022-10-16T10:17:45;96107.22;;;27.04;27.54
42007;BME280;27696;42.704;23.304;2022-10-16T10:23:13;96098.34;;;26.26;29.27
42007;BME280;27696;42.704;23.304;2022-10-16T10:25:51;96102.47;;;26.99;27.53
42007;BME280;27696;42.704;23.304;2022-10-16T10:31:13;96090.34;;;27.59;26.72
42007;BME280;27696;42.704;23.304;2022-10-16T10:34:02;96093.16;;;27.08;27.54
42007;BME280;27696;42.704;23.304;2022-10-16T10:50:23;96077.81;;;28.29;26.80
42007;BME280;27696;42.704;23.304;2022-10-16T10:52:53;96066.41;;;28.80;26.36
42007;BME280;27696;42.704;23.304;2022-10-16T11:01:08;96071.28;;;28.62;25.99
42007;BME280;27696;42.704;23.304;2022-10-16T11:06:24;96072.38;;;28.48;26.06
42007;BME280;27696;42.704;23.304;2022-10-16T11:09:00;96052.88;;;28.76;25.54
42007;BME280;27696;42.704;23.304;2022-10-16T11:14:21;96052.09;;;29.06;25.79
42007;BME280;27696;42.704;23.304;2022-10-16T11:17:01;96042.06;;;28.78;25.72
42007;BME280;27696;42.704;23.304;2022-10-16T11:27:21;96040.56;;;29.76;25.01
42007;BME280;27696;42.704;23.304;2022-10-16T11:30:02;96042.66;;;29.89;24.76
42007;BME280;27696;42.704;23.304;2022-10-16T11:32:34;96040.50;;;29.38;25.16
42007;BME280;27696;42.704;23.304;2022-10-16T11:35:11;96044.38;;;29.92;24.92
42007;BME280;27696;42.704;23.304;2022-10-16T11:37:44;96035.06;;;29.52;25.24
42007;BME280;27696;42.704;23.304;2022-10-16T11:43:07;96039.75;;;28.82;25.29
42007;BME280;27696;42.704;23.304;2022-10-16T11:45:51;96048.34;;;29.59;25.10
42007;BME280;27696;42.704;23.304;2022-10-16T11:53:45;96036.78;;;29.99;24.47
42007;BME280;27696;42.704;23.304;2022-10-16T11:56:18;96043.19;;;30.26;23.73
42007;BME280;27696;42.704;23.304;2022-10-16T12:01:48;96041.22;;;29.63;24.33
42007;BME280;27696;42.704;23.304;2022-10-16T12:06:51;96034.31;;;30.14;23.56
42007;BME280;27696;42.704;23.304;2022-10-16T12:09:33;96040.88;;;30.30;23.69
42007;BME280;27696;42.704;23.304;2022-10-16T12:17:55;96028.22;;;29.09;23.47
42007;BME280;27696;42.704;23.304;2022-10-16T12:20:24;96034.69;;;30.05;23.00
42007;BME280;27696;42.704;23.304;2022-10-16T12:22:55;96041.13;;;29.94;22.87
42007;BME280;27696;42.704;23.304;2022-10-16T12:25:25;96039.59;;;30.50;22.65
42007;BME280;27696;42.704;23.304;2022-10-16T12:28:00;96041.22;;;30.92;22.30
42007;BME280;27696;42.704;23.304;2022-10-16T12:30:30;96043.78;;;31.03;22.24
42007;BME280;27696;42.704;23.304;2022-10-16T12:33:03;96034.63;;;31.08;22.28
42007;BME280;27696;42.704;23.304;2022-10-16T12:35:33;96036.06;;;30.31;22.16
42007;BME280;27696;42.704;23.304;2022-10-16T12:38:15;96043.00;;;31.35;21.41
42007;BME280;27696;42.704;23.304;2022-10-16T12:40:46;96047.41;;;30.98;21.73
42007;BME280;27696;42.704;23.304;2022-10-16T12:43:35;96039.88;;;30.66;22.00
42007;BME280;27696;42.704;23.304;2022-10-16T12:46:04;96032.03;;;30.97;21.72
42007;BME280;27696;42.704;23.304;2022-10-16T12:48:33;96031.19;;;31.02;21.32
42007;BME280;27696;42.704;23.304;2022-10-16T12:51:11;96033.88;;;30.62;22.45
42007;BME280;27696;42.704;23.304;2022-10-16T12:53:40;96043.63;;;31.41;21.57
42007;BME280;27696;42.704;23.304;2022-10-16T12:56:23;96038.75;;;30.55;22.42
42007;BME280;27696;42.704;23.304;2022-10-16T12:58:56;96040.06;;;29.97;22.87
42007;BME280;27696;42.704;23.304;2022-10-16T13:01:29;96042.31;;;29.99;22.74
42007;BME280;27696;42.704;23.304;2022-10-16T13:04:10;96046.94;;;29.90;23.28
42007;BME280;27696;42.704;23.304;2022-10-16T13:06:49;96049.31;;;29.80;23.35
42007;BME280;27696;42.704;23.304;2022-10-16T13:09:25;96048.97;;;30.28;22.93
42007;BME280;27696;42.704;23.304;2022-10-16T13:12:15;96049.44;;;30.32;22.24
42007;BME280;27696;42.704;23.304;2022-10-16T13:14:54;96052.66;;;29.29;22.82
42007;BME280;27696;42.704;23.304;2022-10-16T13:17:46;96052.44;;;30.15;22.61
42007;BME280;27696;42.704;23.304;2022-10-16T13:23:03;96045.06;;;29.79;23.29
42007;BME280;27696;42.704;23.304;2022-10-16T13:25:38;96043.88;;;30.13;23.02
42007;BME280;27696;42.704;23.304;2022-10-16T13:28:10;96049.94;;;30.82;22.30
42007;BME280;27696;42.704;23.304;2022-10-16T13:30:43;96050.41;;;30.16;22.47
42007;BME280;27696;42.704;23.304;2022-10-16T13:35:57;96049.28;;;30.24;22.65
42007;BME280;27696;42.704;23.304;2022-10-16T13:38:26;96050.31;;;29.83;23.34
42007;BME280;27696;42.704;23.304;2022-10-16T13:43:54;96055.66;;;30.00;22.75
42007;BME280;27696;42.704;23.304;2022-10-16T13:46:23;96049.78;;;29.85;23.01
42007;BME280;27696;42.704;23.304;2022-10-16T13:51:58;96053.75;;;29.89;22.17
42007;BME280;27696;42.704;23.304;2022-10-16T13:54:27;96054.81;;;30.05;21.69
42007;BME280;27696;42.704;23.304;2022-10-16T13:57:14;96052.81;;;30.06;22.36
42007;BME280;27696;42.704;23.304;2022-10-16T13:59:43;96054.09;;;29.80;21.88
42007;BME280;27696;42.704;23.304;2022-10-16T14:02:14;96055.53;;;29.43;22.28
42007;BME280;27696;42.704;23.304;2022-10-16T14:04:47;96064.25;;;29.53;21.66
42007;BME280;27696;42.704;23.304;2022-10-16T14:07:13;96065.19;;;29.06;22.67
42007;BME280;27696;42.704;23.304;2022-10-16T14:09:42;96056.31;;;29.13;22.64
42007;BME280;27696;42.704;23.304;2022-10-16T14:12:21;96063.41;;;29.08;22.26
42007;BME280;27696;42.704;23.304;2022-10-16T14:14:50;96064.84;;;29.15;21.95
42007;BME280;27696;42.704;23.304;2022-10-16T14:17:27;96066.94;;;28.78;22.21
42007;BME280;27696;42.704;23.304;2022-10-16T14:19:57;96064.56;;;29.18;22.46
42007;BME280;27696;42.704;23.304;2022-10-16T14:22:36;96068.53;;;28.62;22.76
42007;BME280;27696;42.704;23.304;2022-10-16T14:28:14;96071.09;;;29.46;22.15
42007;BME280;27696;42.704;23.304;2022-10-16T14:30:58;96065.03;;;28.92;23.30
42007;BME280;27696;42.704;23.304;2022-10-16T14:33:32;96077.50;;;28.68;22.99
42007;BME280;27696;42.704;23.304;2022-10-16T14:41:49;96075.00;;;28.34;23.32
42007;BME280;27696;42.704;23.304;2022-10-16T14:44:17;96082.78;;;27.71;24.06
42007;BME280;27696;42.704;23.304;2022-10-16T14:46:46;96085.88;;;28.21;23.60
42007;BME280;27696;42.704;23.304;2022-10-16T14:49:18;96089.94;;;28.03;23.10
42007;BME280;27696;42.704;23.304;2022-10-16T14:51:46;96085.94;;;27.98;23.99
42007;BME280;27696;42.704;23.304;2022-10-16T14:54:21;96093.84;;;27.60;23.89
42007;BME280;27696;42.704;23.304;2022-10-16T14:56:54;96091.28;;;27.85;23.94
42007;BME280;27696;42.704;23.304;2022-10-16T14:59:36;96097.66;;;27.51;24.16